Time;durP1;ratioP1;P1;durP2;ratioP2;P2;SDS_P1;SDS_P2;PMS_P1;PMS_P2;Temp;Humidity;BMP_temperature;BMP_pressure;BME280_temperature;BME280_humidity;BME280_pressure;Samples;Min_cycle;Max_cycle;Signal;HPM_P1;HPM_P2
2023/10/22 00:00:54;;;;;;;6.40;4.67;;;11.70;84.40;;;;;;5000667;28;20193;-68
2023/10/22 00:03:20;;;;;;;6.70;4.10;;;11.50;84.70;;;;;;4998736;28;20186;-68
2023/10/22 00:05:46;;;;;;;5.57;4.30;;;11.60;85.00;;;;;;4996960;28;20212;-68
2023/10/22 00:08:11;;;;;;;6.57;3.93;;;11.60;85.00;;;;;;5007811;28;20174;-69
2023/10/22 00:10:37;;;;;;;11.50;4.50;;;11.60;85.00;;;;;;5006579;28;20797;-68
2023/10/22 00:13:03;;;;;;;6.53;4.53;;;11.60;84.90;;;;;;5007677;28;20213;-68
2023/10/22 00:15:28;;;;;;;7.13;4.00;;;11.50;84.90;;;;;;4999177;28;20237;-69
2023/10/22 00:17:54;;;;;;;7.30;4.67;;;11.50;85.00;;;;;;5001357;28;20236;-69
2023/10/22 00:20:19;;;;;;;7.57;4.47;;;11.40;85.20;;;;;;4992090;28;20194;-69
2023/10/22 00:22:45;;;;;;;9.00;4.57;;;11.30;85.30;;;;;;5001568;28;20613;-69
2023/10/22 00:25:11;;;;;;;16.50;4.80;;;11.20;85.70;;;;;;4989922;28;20190;-68
2023/10/22 00:27:37;;;;;;;10.03;4.60;;;11.20;85.90;;;;;;5000642;28;21111;-68
2023/10/22 00:30:03;;;;;;;8.20;4.30;;;11.20;85.90;;;;;;4996372;28;20682;-69
2023/10/22 00:32:28;;;;;;;12.60;4.07;;;11.20;85.90;;;;;;4997994;28;20650;-67
2023/10/22 00:34:55;;;;;;;4.30;3.80;;;11.20;85.70;;;;;;5007594;28;20731;-66
2023/10/22 00:37:20;;;;;;;8.60;4.77;;;11.20;85.90;;;;;;4994631;28;20222;-66
2023/10/22 00:39:46;;;;;;;4.53;3.23;;;11.20;85.60;;;;;;5004318;28;20592;-68
2023/10/22 00:42:12;;;;;;;7.93;4.17;;;11.20;85.60;;;;;;4998034;28;20452;-68
2023/10/22 00:44:38;;;;;;;6.10;4.00;;;11.20;85.50;;;;;;4999034;28;20193;-68
2023/10/22 00:47:05;;;;;;;5.43;3.70;;;11.10;85.50;;;;;;4997593;28;20268;-68
2023/10/22 00:49:31;;;;;;;5.90;4.03;;;11.00;85.50;;;;;;5006696;28;20972;-68
2023/10/22 00:51:57;;;;;;;5.27;3.73;;;11.00;85.60;;;;;;5002796;28;20426;-68
2023/10/22 00:54:25;;;;;;;6.00;3.87;;;11.00;85.60;;;;;;5001709;28;20949;-67
2023/10/22 00:56:51;;;;;;;5.53;3.97;;;10.90;85.70;;;;;;4996327;28;20243;-68
2023/10/22 00:59:17;;;;;;;5.63;3.97;;;10.90;85.70;;;;;;5001690;28;20524;-68
2023/10/22 01:01:43;;;;;;;5.77;3.70;;;10.90;85.70;;;;;;5002475;28;20428;-68
2023/10/22 01:04:09;;;;;;;5.27;3.57;;;10.90;85.70;;;;;;5002395;28;20421;-68
2023/10/22 01:06:38;;;;;;;5.17;3.57;;;10.90;85.60;;;;;;5000068;28;20237;-68
2023/10/22 01:09:05;;;;;;;5.80;3.63;;;10.90;85.60;;;;;;5001755;28;20586;-68
2023/10/22 01:11:33;;;;;;;6.10;3.77;;;10.90;85.60;;;;;;4997354;28;20433;-69
2023/10/22 01:13:59;;;;;;;4.97;3.60;;;11.00;85.60;;;;;;5001813;28;20938;-67
2023/10/22 01:16:25;;;;;;;6.80;3.20;;;11.00;85.30;;;;;;5000085;28;20470;-67
2023/10/22 01:18:51;;;;;;;3.80;3.10;;;11.00;85.20;;;;;;5002557;28;20712;-68
2023/10/22 01:21:16;;;;;;;5.63;3.57;;;11.00;85.20;;;;;;5002285;28;20536;-68
2023/10/22 01:23:42;;;;;;;4.33;3.43;;;10.90;85.20;;;;;;5004490;28;20262;-66
2023/10/22 01:26:08;;;;;;;7.53;3.60;;;10.80;85.20;;;;;;5001816;28;20245;-67
2023/10/22 01:28:34;;;;;;;7.03;3.77;;;10.80;85.50;;;;;;5005341;28;20186;-67
2023/10/22 01:31:00;;;;;;;4.20;3.30;;;10.80;85.50;;;;;;5007690;28;20182;-68
2023/10/22 01:33:26;;;;;;;4.97;3.47;;;10.80;85.30;;;;;;5004625;28;20425;-68
2023/10/22 01:35:52;;;;;;;5.53;3.10;;;10.80;85.30;;;;;;5007719;28;20941;-69
2023/10/22 01:38:17;;;;;;;5.70;3.27;;;10.80;85.30;;;;;;5001967;28;20508;-67
2023/10/22 01:40:43;;;;;;;5.90;3.40;;;10.80;85.50;;;;;;5015839;28;20182;-69
2023/10/22 01:43:09;;;;;;;6.30;2.70;;;11.00;85.20;;;;;;5002123;28;20192;-68
2023/10/22 01:45:34;;;;;;;4.40;3.37;;;10.90;84.90;;;;;;5007523;28;20332;-68
2023/10/22 01:48:00;;;;;;;4.50;3.10;;;11.00;84.70;;;;;;4999999;28;20189;-68
2023/10/22 01:50:26;;;;;;;7.83;3.10;;;11.00;84.70;;;;;;5006849;28;20186;-68
2023/10/22 01:52:52;;;;;;;5.20;2.90;;;11.00;84.60;;;;;;5004800;28;20764;-69
2023/10/22 01:55:18;;;;;;;4.70;2.97;;;10.90;84.70;;;;;;5008770;28;20214;-68
2023/10/22 01:57:44;;;;;;;3.93;3.33;;;10.90;84.70;;;;;;5005289;28;20205;-68
2023/10/22 02:00:11;;;;;;;4.43;3.23;;;10.80;84.90;;;;;;5011380;28;20961;-68
2023/10/22 02:02:38;;;;;;;3.57;3.07;;;10.80;85.00;;;;;;5000937;28;20549;-69
2023/10/22 02:05:04;;;;;;;4.70;2.97;;;10.80;84.90;;;;;;5009714;28;20418;-69
2023/10/22 02:07:29;;;;;;;5.93;3.40;;;10.70;85.00;;;;;;5009907;28;20520;-67
2023/10/22 02:09:55;;;;;;;6.30;3.20;;;10.60;85.20;;;;;;5007729;28;20309;-68
2023/10/22 02:12:28;;;;;;;4.97;2.90;;;10.70;85.20;;;;;;4998137;28;20209;-68
2023/10/22 02:14:53;;;;;;;7.60;3.13;;;10.60;85.30;;;;;;5003412;28;20676;-68
2023/10/22 02:17:19;;;;;;;5.43;2.97;;;10.60;85.30;;;;;;5000303;28;20487;-67
2023/10/22 02:19:45;;;;;;;5.33;3.20;;;10.50;85.20;;;;;;5003977;28;20202;-68
2023/10/22 02:22:12;;;;;;;4.30;3.03;;;10.50;85.30;;;;;;5002928;28;20220;-68
2023/10/22 02:24:38;;;;;;;5.10;3.10;;;10.40;85.30;;;;;;5003134;28;20433;-67
2023/10/22 02:27:03;;;;;;;3.57;2.40;;;10.40;85.50;;;;;;4998866;28;20472;-67
2023/10/22 02:29:30;;;;;;;4.50;3.27;;;10.30;85.60;;;;;;5003170;28;20249;-69
2023/10/22 02:31:55;;;;;;;3.10;2.57;;;10.40;85.60;;;;;;5015087;28;20529;-68
2023/10/22 02:34:21;;;;;;;3.77;2.57;;;10.40;85.60;;;;;;5003822;28;20421;-68
2023/10/22 02:36:47;;;;;;;4.23;2.93;;;10.40;85.50;;;;;;5008135;28;20266;-68
2023/10/22 02:39:12;;;;;;;4.53;3.00;;;10.30;85.50;;;;;;5003057;28;20608;-68
2023/10/22 02:41:38;;;;;;;5.07;3.63;;;10.30;85.50;;;;;;5007813;28;20186;-67
2023/10/22 02:44:04;;;;;;;3.90;2.70;;;10.30;85.50;;;;;;4998039;28;20202;-67
2023/10/22 02:46:30;;;;;;;3.30;2.47;;;10.30;85.50;;;;;;5005861;28;20214;-67
2023/10/22 02:48:55;;;;;;;10.57;3.00;;;10.30;85.60;;;;;;4997758;28;20440;-68
2023/10/22 02:51:22;;;;;;;4.20;2.93;;;10.40;85.50;;;;;;5007541;28;20528;-68
2023/10/22 02:53:48;;;;;;;3.27;2.47;;;10.50;85.30;;;;;;5010033;28;20731;-67
2023/10/22 02:56:13;;;;;;;4.20;2.60;;;10.70;84.90;;;;;;5001875;28;20565;-69
2023/10/22 02:58:40;;;;;;;4.93;2.77;;;10.70;84.10;;;;;;5002794;28;20280;-69
2023/10/22 03:01:07;;;;;;;4.40;2.50;;;10.60;84.00;;;;;;5004883;28;20317;-67
2023/10/22 03:03:38;;;;;;;3.80;2.73;;;10.50;84.10;;;;;;4998177;28;20445;-68
2023/10/22 03:06:06;;;;;;;6.07;2.90;;;10.40;84.60;;;;;;5002904;28;20461;-69
2023/10/22 03:08:32;;;;;;;4.00;2.70;;;10.30;84.90;;;;;;4997733;28;21301;-68
2023/10/22 03:10:58;;;;;;;4.53;2.50;;;10.30;85.00;;;;;;5002887;28;20448;-67
2023/10/22 03:13:23;;;;;;;5.10;2.63;;;10.30;85.20;;;;;;5002331;28;20508;-68
2023/10/22 03:15:49;;;;;;;5.60;2.40;;;10.40;85.20;;;;;;5001086;28;21029;-68
2023/10/22 03:18:14;;;;;;;7.03;2.80;;;10.40;85.00;;;;;;5009058;28;20292;-67
2023/10/22 03:20:40;;;;;;;4.63;2.73;;;10.40;84.90;;;;;;5012826;28;20190;-68
2023/10/22 03:23:06;;;;;;;4.37;2.77;;;10.40;84.70;;;;;;5008310;28;20189;-67
2023/10/22 03:25:33;;;;;;;4.47;2.93;;;10.40;85.20;;;;;;5002517;28;20288;-67
2023/10/22 03:28:00;;;;;;;4.87;2.40;;;10.50;85.00;;;;;;5002546;28;20182;-67
2023/10/22 03:30:26;;;;;;;3.90;2.47;;;10.60;84.70;;;;;;5006422;28;20425;-68
2023/10/22 03:32:55;;;;;;;4.17;2.53;;;10.60;84.70;;;;;;5009920;28;20413;-68
2023/10/22 03:35:21;;;;;;;5.03;2.90;;;10.60;84.60;;;;;;5010492;28;21131;-68
2023/10/22 03:37:47;;;;;;;4.57;2.73;;;10.60;84.60;;;;;;5000919;28;20933;-69
2023/10/22 03:40:13;;;;;;;4.93;2.40;;;10.60;84.70;;;;;;4997247;28;20473;-69
2023/10/22 03:42:39;;;;;;;8.17;2.90;;;10.60;84.60;;;;;;5000900;28;21469;-69
2023/10/22 03:45:06;;;;;;;4.37;2.83;;;10.60;84.40;;;;;;4996351;28;20620;-69
2023/10/22 03:47:32;;;;;;;3.77;2.70;;;10.60;84.60;;;;;;5004607;28;20443;-69
2023/10/22 03:49:57;;;;;;;7.30;2.87;;;10.50;84.60;;;;;;4995869;28;20418;-68
2023/10/22 03:52:23;;;;;;;4.70;2.47;;;10.50;84.70;;;;;;5002338;28;20191;-69
2023/10/22 03:54:48;;;;;;;3.77;2.73;;;10.50;84.90;;;;;;4995836;28;20194;-69
2023/10/22 03:57:14;;;;;;;3.53;2.77;;;10.50;84.90;;;;;;5000072;28;20202;-68
2023/10/22 03:59:40;;;;;;;4.93;2.70;;;10.50;84.70;;;;;;5001143;28;20226;-68
2023/10/22 04:02:05;;;;;;;6.30;3.20;;;10.50;84.70;;;;;;5007580;28;20426;-68
2023/10/22 04:04:31;;;;;;;4.63;2.63;;;10.40;84.90;;;;;;5005154;28;20247;-68
2023/10/22 04:06:57;;;;;;;3.20;2.40;;;10.40;84.90;;;;;;5002915;28;20225;-67
2023/10/22 04:09:23;;;;;;;3.70;2.87;;;10.30;85.00;;;;;;5000221;28;20269;-69
2023/10/22 04:11:49;;;;;;;6.17;3.60;;;10.20;85.20;;;;;;5004287;28;20527;-67
2023/10/22 04:14:14;;;;;;;6.00;3.00;;;10.20;85.30;;;;;;5002672;28;20186;-68
2023/10/22 04:16:41;;;;;;;5.60;3.17;;;10.20;85.30;;;;;;5005130;28;20261;-67
2023/10/22 04:19:07;;;;;;;3.43;2.50;;;10.20;85.30;;;;;;5004444;28;20472;-69
2023/10/22 04:21:32;;;;;;;3.27;2.87;;;10.20;85.20;;;;;;5005388;28;20182;-67
2023/10/22 04:23:58;;;;;;;6.70;2.50;;;10.20;85.30;;;;;;5006591;28;20178;-67
2023/10/22 04:26:23;;;;;;;3.77;2.53;;;10.20;85.30;;;;;;5008347;28;20230;-67
2023/10/22 04:28:49;;;;;;;4.97;2.60;;;10.20;85.30;;;;;;4997705;28;20178;-70
2023/10/22 04:31:15;;;;;;;6.60;3.20;;;10.20;85.30;;;;;;5004621;28;20674;-66
2023/10/22 04:33:40;;;;;;;5.90;3.10;;;10.20;85.30;;;;;;5005011;28;20202;-68
2023/10/22 04:36:19;;;;;;;5.90;2.67;;;10.20;85.30;;;;;;5000783;28;20297;-66
2023/10/22 04:38:44;;;;;;;5.60;2.67;;;10.20;85.20;;;;;;5009821;28;20304;-67
2023/10/22 04:41:13;;;;;;;3.67;2.97;;;10.20;85.20;;;;;;5000284;28;20518;-69
2023/10/22 04:43:38;;;;;;;4.60;2.80;;;10.20;84.90;;;;;;5006917;28;20196;-68
2023/10/22 04:46:04;;;;;;;3.70;2.60;;;10.20;84.70;;;;;;5005745;28;20473;-67
2023/10/22 04:48:33;;;;;;;6.17;2.50;;;10.20;84.70;;;;;;5012347;28;20197;-67
2023/10/22 04:51:03;;;;;;;3.50;2.83;;;10.20;84.70;;;;;;5000931;28;20432;-67
2023/10/22 04:53:29;;;;;;;4.67;2.73;;;10.30;84.60;;;;;;5004652;28;20418;-67
2023/10/22 04:55:55;;;;;;;4.10;2.43;;;10.30;84.40;;;;;;4996434;28;21328;-70
2023/10/22 04:58:21;;;;;;;4.83;2.57;;;10.40;84.60;;;;;;5001964;28;20210;-66
2023/10/22 05:00:47;;;;;;;8.67;3.13;;;10.50;84.10;;;;;;5000890;28;20532;-66
2023/10/22 05:03:13;;;;;;;3.60;2.60;;;10.50;83.80;;;;;;5002077;28;21001;-69
2023/10/22 05:05:39;;;;;;;4.00;2.40;;;10.50;83.70;;;;;;5003202;28;20287;-68
2023/10/22 05:08:05;;;;;;;5.50;2.50;;;10.50;83.60;;;;;;5005439;28;21272;-67
2023/10/22 05:10:36;;;;;;;3.10;2.30;;;10.60;83.40;;;;;;5013303;28;20726;-68
2023/10/22 05:13:02;;;;;;;3.87;2.63;;;10.70;83.00;;;;;;5004040;28;20906;-68
2023/10/22 05:15:28;;;;;;;4.13;2.70;;;10.70;82.70;;;;;;4999818;28;20449;-67
2023/10/22 05:17:55;;;;;;;3.40;2.40;;;10.70;82.70;;;;;;5003479;28;20208;-69
2023/10/22 05:20:21;;;;;;;4.47;2.63;;;10.70;82.80;;;;;;4999527;28;20200;-68
2023/10/22 05:22:48;;;;;;;5.00;2.50;;;10.70;82.80;;;;;;5000713;28;20421;-67
2023/10/22 05:25:14;;;;;;;4.10;2.17;;;10.70;83.00;;;;;;4997361;28;20452;-70
2023/10/22 05:27:39;;;;;;;3.80;2.83;;;10.70;82.80;;;;;;5000531;28;20985;-69
2023/10/22 05:30:06;;;;;;;4.57;2.70;;;10.60;82.80;;;;;;5003473;28;20438;-70
2023/10/22 05:32:31;;;;;;;7.97;2.30;;;10.60;83.00;;;;;;5004557;28;20190;-67
2023/10/22 05:34:57;;;;;;;4.87;2.80;;;10.60;82.80;;;;;;5009833;28;20423;-69
2023/10/22 05:37:22;;;;;;;6.17;2.67;;;10.60;82.70;;;;;;5005905;28;20221;-69
2023/10/22 05:39:48;;;;;;;3.73;2.50;;;10.60;82.50;;;;;;5011693;28;20205;-68
2023/10/22 05:42:14;;;;;;;7.73;2.40;;;10.50;82.70;;;;;;5001334;28;20182;-69
2023/10/22 05:44:39;;;;;;;3.33;2.53;;;10.40;82.80;;;;;;5006161;28;20575;-68
2023/10/22 05:47:05;;;;;;;3.97;2.40;;;10.40;83.10;;;;;;4999315;28;20209;-67
2023/10/22 05:49:31;;;;;;;4.40;2.43;;;10.30;83.40;;;;;;5002377;28;20265;-69
2023/10/22 05:51:57;;;;;;;3.20;2.20;;;10.30;83.40;;;;;;4998362;28;20187;-68
2023/10/22 05:54:22;;;;;;;4.03;2.70;;;10.30;83.30;;;;;;5005190;28;20767;-69
2023/10/22 05:56:48;;;;;;;3.80;2.00;;;10.30;83.30;;;;;;4999979;28;20453;-68
2023/10/22 05:59:13;;;;;;;4.50;2.03;;;10.30;82.80;;;;;;5008351;28;20224;-68
2023/10/22 06:01:41;;;;;;;3.50;1.70;;;10.50;82.10;;;;;;5011793;28;20207;-69
2023/10/22 06:04:10;;;;;;;2.77;1.67;;;10.60;81.10;;;;;;5011821;28;20300;-68
2023/10/22 06:06:36;;;;;;;4.13;2.13;;;10.80;80.80;;;;;;5012143;28;20485;-69
2023/10/22 06:09:01;;;;;;;3.67;1.80;;;11.00;80.00;;;;;;5004396;28;20434;-68
2023/10/22 06:11:27;;;;;;;6.00;1.77;;;11.00;79.70;;;;;;4997347;28;20425;-67
2023/10/22 06:13:52;;;;;;;4.30;2.13;;;11.00;79.90;;;;;;5021572;28;20177;-68
2023/10/22 06:16:18;;;;;;;6.97;2.10;;;11.00;79.70;;;;;;5005144;28;20310;-68
2023/10/22 06:18:43;;;;;;;6.87;2.07;;;10.90;79.90;;;;;;5007883;28;20571;-69
2023/10/22 06:21:10;;;;;;;3.20;2.23;;;10.90;79.90;;;;;;5007851;28;20804;-69
2023/10/22 06:23:36;;;;;;;3.10;1.70;;;10.80;80.50;;;;;;5006439;28;20197;-67
2023/10/22 06:26:02;;;;;;;8.20;2.33;;;10.70;80.60;;;;;;5003611;28;20897;-68
2023/10/22 06:28:27;;;;;;;4.50;1.80;;;10.70;80.80;;;;;;5013160;28;20663;-70
2023/10/22 06:31:02;;;;;;;3.93;1.67;;;10.70;80.80;;;;;;5017073;28;20186;-67
2023/10/22 06:33:28;;;;;;;2.27;1.37;;;10.70;80.30;;;;;;5008121;28;20272;-66
2023/10/22 06:35:53;;;;;;;5.93;1.60;;;10.70;80.20;;;;;;5010759;28;20984;-68
2023/10/22 06:38:19;;;;;;;8.00;1.53;;;10.90;79.50;;;;;;5013211;28;20217;-68
2023/10/22 06:40:44;;;;;;;4.40;1.50;;;11.10;78.70;;;;;;5005598;28;20221;-70
2023/10/22 06:43:10;;;;;;;1.73;1.13;;;11.20;77.80;;;;;;5007492;28;20192;-67
2023/10/22 06:45:36;;;;;;;4.33;1.60;;;11.30;77.70;;;;;;5011566;28;20206;-69
2023/10/22 06:48:01;;;;;;;1.93;1.33;;;11.40;77.00;;;;;;5001346;28;20731;-69
2023/10/22 06:50:27;;;;;;;3.70;1.90;;;11.30;77.30;;;;;;5008011;28;20552;-66
2023/10/22 06:52:52;;;;;;;3.83;1.47;;;11.40;77.10;;;;;;4997204;28;20178;-67
2023/10/22 06:55:18;;;;;;;3.20;1.67;;;11.40;77.10;;;;;;5006126;28;20206;-65
2023/10/22 06:57:46;;;;;;;4.60;1.60;;;11.40;77.00;;;;;;5000552;28;20582;-66
2023/10/22 07:00:12;;;;;;;5.63;1.73;;;11.40;76.80;;;;;;5004026;28;20570;-66
2023/10/22 07:02:38;;;;;;;6.23;1.70;;;11.50;76.80;;;;;;5000952;28;20417;-66
2023/10/22 07:05:07;;;;;;;2.10;1.20;;;11.50;76.50;;;;;;5003568;28;20429;-68
2023/10/22 07:07:32;;;;;;;2.93;1.47;;;11.50;76.50;;;;;;5002243;28;20186;-69
2023/10/22 07:09:58;;;;;;;2.40;1.50;;;11.50;76.50;;;;;;5009970;28;20925;-69
2023/10/22 07:12:25;;;;;;;2.37;1.33;;;11.50;76.20;;;;;;5001838;28;20189;-67
2023/10/22 07:14:51;;;;;;;3.17;2.00;;;11.50;76.20;;;;;;5006140;28;20627;-69
2023/10/22 07:17:16;;;;;;;9.13;1.90;;;11.60;76.20;;;;;;5005568;28;20459;-66
2023/10/22 07:19:42;;;;;;;3.20;1.70;;;11.50;76.20;;;;;;5009258;28;20302;-68
2023/10/22 07:22:08;;;;;;;9.13;1.87;;;11.60;76.20;;;;;;5008969;28;20186;-69
2023/10/22 07:24:34;;;;;;;4.00;1.87;;;11.60;75.80;;;;;;5004956;28;21048;-69
2023/10/22 07:27:00;;;;;;;4.77;2.10;;;11.70;75.70;;;;;;5003822;28;20306;-68
2023/10/22 07:29:25;;;;;;;4.70;1.63;;;11.70;75.40;;;;;;5003198;28;20517;-67
2023/10/22 07:31:51;;;;;;;2.03;1.30;;;11.80;75.50;;;;;;5009473;28;20646;-67
2023/10/22 07:34:17;;;;;;;3.00;1.30;;;11.80;75.40;;;;;;5000409;28;20182;-68
2023/10/22 07:36:43;;;;;;;5.80;1.40;;;11.90;75.20;;;;;;5001575;28;20897;-68
2023/10/22 07:39:09;;;;;;;2.90;1.40;;;11.90;75.10;;;;;;4997739;28;20213;-69
2023/10/22 07:41:35;;;;;;;3.57;1.33;;;11.90;74.90;;;;;;5001729;28;20197;-69
2023/10/22 07:44:00;;;;;;;3.47;1.40;;;12.00;74.60;;;;;;4997615;28;20226;-69
2023/10/22 07:46:26;;;;;;;4.93;1.70;;;12.00;74.50;;;;;;5005232;28;20469;-69
2023/10/22 07:48:51;;;;;;;4.77;1.67;;;12.10;74.00;;;;;;4998130;28;20190;-69
2023/10/22 07:51:18;;;;;;;3.77;1.77;;;12.20;73.60;;;;;;5006437;28;20693;-66
2023/10/22 07:53:46;;;;;;;5.43;1.50;;;12.30;73.70;;;;;;4994131;28;20660;-65
2023/10/22 07:56:12;;;;;;;7.43;1.77;;;12.30;73.50;;;;;;5001394;28;20535;-65
2023/10/22 07:58:39;;;;;;;4.53;1.57;;;12.40;73.20;;;;;;4997791;28;21493;-67
2023/10/22 08:01:06;;;;;;;4.33;1.47;;;12.40;73.00;;;;;;5003675;28;20463;-65
2023/10/22 08:03:32;;;;;;;2.97;1.50;;;12.50;72.90;;;;;;4999030;28;20438;-65
2023/10/22 08:05:59;;;;;;;2.10;1.40;;;12.50;72.70;;;;;;5006072;28;20630;-65
2023/10/22 08:08:25;;;;;;;2.13;1.30;;;12.60;72.60;;;;;;4996221;28;20426;-66
2023/10/22 08:11:03;;;;;;;4.37;1.50;;;12.60;72.60;;;;;;5003024;28;20863;-65
2023/10/22 08:13:28;;;;;;;3.73;1.60;;;12.60;72.30;;;;;;5004342;28;20425;-67
2023/10/22 08:15:54;;;;;;;5.80;1.30;;;12.70;71.80;;;;;;5000719;28;20498;-65
2023/10/22 08:18:20;;;;;;;5.20;1.40;;;12.70;72.00;;;;;;5001725;28;20182;-67
2023/10/22 08:20:46;;;;;;;4.10;1.20;;;12.80;72.00;;;;;;5003573;28;20187;-64
2023/10/22 08:23:12;;;;;;;2.87;1.17;;;12.90;71.70;;;;;;5010662;28;20457;-67
2023/10/22 08:25:37;;;;;;;2.03;1.13;;;12.90;71.70;;;;;;5007245;28;20221;-66
2023/10/22 08:28:03;;;;;;;3.03;1.20;;;13.00;71.30;;;;;;5003680;28;20188;-65
2023/10/22 08:30:29;;;;;;;3.50;1.20;;;12.90;71.30;;;;;;5007921;28;20189;-64
2023/10/22 08:32:54;;;;;;;5.17;1.80;;;13.00;71.30;;;;;;5003028;28;20608;-66
2023/10/22 08:35:21;;;;;;;4.03;1.10;;;13.10;71.10;;;;;;4996919;28;20264;-65
2023/10/22 08:37:47;;;;;;;4.50;1.50;;;13.10;70.80;;;;;;5001517;28;20201;-67
2023/10/22 08:40:12;;;;;;;5.13;1.83;;;13.20;70.50;;;;;;5001126;28;20473;-68
2023/10/22 08:42:38;;;;;;;4.73;1.33;;;13.20;70.40;;;;;;5005024;28;20222;-64
2023/10/22 08:45:06;;;;;;;2.23;1.10;;;13.30;70.10;;;;;;5002654;28;20226;-68
2023/10/22 08:47:33;;;;;;;4.60;1.30;;;13.50;69.90;;;;;;5012397;28;20465;-67
2023/10/22 08:50:00;;;;;;;3.80;1.10;;;13.50;69.70;;;;;;4999897;28;20843;-66
2023/10/22 08:52:27;;;;;;;4.27;1.27;;;13.60;69.20;;;;;;5004990;28;20504;-65
2023/10/22 08:54:52;;;;;;;3.60;1.70;;;13.80;68.80;;;;;;5001696;28;20425;-69
2023/10/22 08:57:22;;;;;;;2.90;1.13;;;13.80;68.50;;;;;;5007028;28;20461;-67
2023/10/22 08:59:48;;;;;;;7.30;1.70;;;13.80;68.30;;;;;;5010552;28;20213;-66
2023/10/22 09:02:16;;;;;;;3.83;1.20;;;13.90;68.20;;;;;;5011511;28;20433;-67
2023/10/22 09:04:42;;;;;;;3.40;1.53;;;13.90;68.00;;;;;;5007021;28;20452;-66
2023/10/22 09:07:08;;;;;;;6.83;1.40;;;13.90;68.00;;;;;;5005114;28;20861;-67
2023/10/22 09:09:38;;;;;;;2.70;1.40;;;14.00;67.90;;;;;;5004892;28;21046;-65
2023/10/22 09:12:08;;;;;;;3.83;1.50;;;14.00;67.70;;;;;;5008628;28;20182;-66
2023/10/22 09:14:35;;;;;;;4.70;1.37;;;14.00;67.20;;;;;;5009293;28;20525;-66
2023/10/22 09:17:19;;;;;;;3.03;1.27;;;14.10;67.20;;;;;;5008647;28;20461;-67
2023/10/22 09:19:47;;;;;;;5.43;1.83;;;14.10;67.50;;;;;;5007378;28;20988;-67
2023/10/22 09:22:22;;;;;;;6.27;1.53;;;14.10;66.70;;;;;;5012438;28;20417;-65
2023/10/22 09:24:50;;;;;;;4.67;1.70;;;14.20;67.20;;;;;;5006642;28;20471;-65
2023/10/22 09:27:23;;;;;;;8.97;2.10;;;14.20;66.60;;;;;;5002802;28;20491;-65
2023/10/22 09:29:49;;;;;;;4.10;1.63;;;14.20;66.70;;;;;;5006665;28;20937;-67
2023/10/22 09:32:14;;;;;;;3.80;1.20;;;14.30;66.60;;;;;;4999122;28;20461;-64
2023/10/22 09:34:40;;;;;;;4.13;1.30;;;14.30;66.70;;;;;;5016439;28;20967;-67
2023/10/22 09:37:06;;;;;;;3.63;1.63;;;14.40;66.40;;;;;;5002974;28;20212;-66
2023/10/22 09:39:37;;;;;;;4.63;1.50;;;14.50;66.40;;;;;;5007988;28;20306;-68
2023/10/22 09:42:04;;;;;;;2.20;1.07;;;14.40;66.30;;;;;;5006704;28;20174;-68
2023/10/22 09:44:32;;;;;;;2.90;1.37;;;14.50;66.40;;;;;;5004744;28;21041;-66
2023/10/22 09:47:03;;;;;;;5.13;1.27;;;14.60;66.30;;;;;;5003375;28;20551;-66
2023/10/22 09:49:30;;;;;;;6.17;1.10;;;14.60;66.30;;;;;;5001184;28;20453;-66
2023/10/22 09:52:03;;;;;;;8.90;1.60;;;14.60;66.00;;;;;;5008024;28;20932;-68
2023/10/22 09:54:37;;;;;;;4.87;1.60;;;14.60;66.30;;;;;;5012804;28;20447;-68
2023/10/22 09:57:13;;;;;;;6.87;2.37;;;14.70;66.00;;;;;;5006341;28;20456;-68
2023/10/22 09:59:40;;;;;;;5.23;1.30;;;14.80;65.80;;;;;;5015038;28;20476;-67
2023/10/22 10:02:17;;;;;;;3.53;1.40;;;14.90;65.70;;;;;;5015604;28;20440;-68
2023/10/22 10:04:43;;;;;;;6.27;1.27;;;14.90;65.30;;;;;;5007828;28;20516;-67
2023/10/22 10:07:10;;;;;;;3.63;1.63;;;14.90;65.70;;;;;;5011838;28;20487;-67
2023/10/22 10:09:36;;;;;;;6.97;1.70;;;14.90;65.60;;;;;;5013464;28;20425;-68
2023/10/22 10:12:08;;;;;;;5.97;1.67;;;15.10;65.70;;;;;;5016436;28;20916;-68
2023/10/22 10:14:38;;;;;;;9.70;1.63;;;15.30;65.60;;;;;;5006396;28;20446;-67
2023/10/22 10:17:04;;;;;;;10.40;2.03;;;15.50;65.30;;;;;;5013411;28;20473;-67
2023/10/22 10:19:30;;;;;;;5.70;1.47;;;15.60;65.80;;;;;;5002873;28;20524;-65
2023/10/22 10:21:56;;;;;;;3.30;1.70;;;15.80;65.60;;;;;;5005903;28;20428;-66
2023/10/22 10:24:25;;;;;;;5.07;1.60;;;16.20;65.00;;;;;;5001803;28;20434;-67
2023/10/22 10:26:57;;;;;;;4.73;1.63;;;16.40;64.40;;;;;;5012036;28;21038;-69
2023/10/22 10:29:23;;;;;;;6.23;1.30;;;16.40;64.40;;;;;;5011237;28;20433;-67
2023/10/22 10:31:53;;;;;;;4.20;1.20;;;16.30;64.50;;;;;;5005528;28;20478;-66
2023/10/22 10:34:33;;;;;;;3.57;1.20;;;16.20;65.00;;;;;;5003361;28;20443;-68
2023/10/22 10:37:28;;;;;;;8.10;1.70;;;16.20;64.50;;;;;;5004522;28;20467;-67
2023/10/22 10:39:54;;;;;;;6.67;2.10;;;16.20;64.40;;;;;;4965639;28;20561;-68
2023/10/22 10:42:28;;;;;;;3.80;1.00;;;16.10;64.70;;;;;;4964011;28;20598;-69
2023/10/22 10:44:57;;;;;;;4.50;1.40;;;16.10;64.10;;;;;;4965177;28;20186;-65
2023/10/22 10:47:22;;;;;;;5.00;1.63;;;16.00;64.70;;;;;;4967626;28;20543;-68
2023/10/22 10:50:05;;;;;;;4.23;1.30;;;15.90;64.80;;;;;;4967229;28;20565;-66
2023/10/22 10:52:45;;;;;;;3.50;1.50;;;15.90;64.70;;;;;;4971188;28;20299;-66
2023/10/22 10:55:20;;;;;;;4.83;1.47;;;15.70;64.70;;;;;;4966661;28;20437;-66
2023/10/22 10:57:50;;;;;;;6.63;1.73;;;15.70;64.80;;;;;;4972330;28;20478;-68
2023/10/22 11:00:30;;;;;;;4.10;1.33;;;15.70;64.70;;;;;;4964441;28;20567;-66
2023/10/22 11:03:04;;;;;;;10.03;1.70;;;15.70;64.20;;;;;;4964074;28;20516;-68
2023/10/22 11:05:31;;;;;;;5.80;1.70;;;15.80;64.50;;;;;;4966008;28;20484;-68
2023/10/22 11:07:57;;;;;;;4.13;1.37;;;16.10;63.90;;;;;;4971150;28;20819;-69
2023/10/22 11:10:23;;;;;;;4.67;1.53;;;16.60;62.90;;;;;;4970921;28;20493;-67
2023/10/22 11:12:49;;;;;;;5.53;1.50;;;17.00;61.30;;;;;;4962975;28;20343;-68
2023/10/22 11:15:16;;;;;;;6.53;1.90;;;17.20;60.10;;;;;;4969022;28;20191;-64
2023/10/22 11:17:42;;;;;;;4.37;1.40;;;17.40;59.10;;;;;;5011213;28;20938;-69
2023/10/22 11:20:09;;;;;;;5.30;2.20;;;17.60;59.30;;;;;;5000629;28;20480;-68
2023/10/22 11:22:36;;;;;;;3.73;1.40;;;17.90;58.10;;;;;;5010073;28;20457;-66
2023/10/22 11:25:06;;;;;;;3.47;1.57;;;17.90;57.30;;;;;;5010733;28;20804;-67
2023/10/22 11:27:32;;;;;;;4.77;1.43;;;17.80;57.40;;;;;;5019560;28;20468;-69
2023/10/22 11:30:00;;;;;;;4.70;1.30;;;17.80;57.20;;;;;;5004620;28;20424;-68
2023/10/22 11:32:26;;;;;;;5.77;1.77;;;17.60;57.80;;;;;;5003812;28;20445;-66
2023/10/22 11:35:07;;;;;;;5.77;1.67;;;17.50;58.40;;;;;;5003172;28;20434;-67
2023/10/22 11:37:37;;;;;;;5.50;1.60;;;17.70;58.00;;;;;;5006108;28;20438;-66
2023/10/22 11:40:35;;;;;;;2.67;1.40;;;17.90;57.70;;;;;;5005568;28;20476;-67
2023/10/22 11:43:05;;;;;;;4.50;1.63;;;18.00;57.40;;;;;;5005670;28;20444;-67
2023/10/22 11:45:34;;;;;;;3.57;1.20;;;17.80;56.80;;;;;;5011657;28;20464;-68
2023/10/22 11:48:12;;;;;;;3.23;1.23;;;17.50;57.40;;;;;;5003668;28;20444;-65
2023/10/22 11:50:38;;;;;;;5.13;1.40;;;17.30;57.40;;;;;;5006285;28;20426;-66
2023/10/22 11:53:04;;;;;;;4.43;1.53;;;17.10;57.40;;;;;;5007253;28;20512;-66
2023/10/22 11:55:30;;;;;;;6.00;1.33;;;16.70;58.10;;;;;;5005944;28;20211;-66
2023/10/22 11:57:56;;;;;;;4.20;1.23;;;16.40;59.30;;;;;;5009295;28;20809;-66
2023/10/22 12:00:22;;;;;;;3.60;1.77;;;16.30;59.70;;;;;;5005795;28;21001;-65
2023/10/22 12:02:48;;;;;;;5.57;1.20;;;16.30;60.00;;;;;;4999828;28;20759;-67
2023/10/22 12:05:14;;;;;;;4.07;1.10;;;16.30;59.50;;;;;;5005530;28;20179;-67
2023/10/22 12:07:39;;;;;;;7.30;1.60;;;16.40;59.50;;;;;;5002473;28;20447;-68
2023/10/22 12:10:06;;;;;;;3.93;1.37;;;16.40;60.00;;;;;;5006268;28;20434;-68
2023/10/22 12:12:32;;;;;;;5.83;1.33;;;16.40;59.90;;;;;;5005987;28;20219;-66
2023/10/22 12:14:58;;;;;;;3.60;1.50;;;16.40;60.60;;;;;;5003145;28;20424;-67
2023/10/22 12:17:24;;;;;;;5.00;1.60;;;16.40;60.60;;;;;;5001201;28;20472;-67
2023/10/22 12:19:49;;;;;;;3.40;1.47;;;16.50;59.70;;;;;;5006563;28;20758;-68
2023/10/22 12:22:15;;;;;;;7.17;1.47;;;16.50;59.70;;;;;;5008902;28;20208;-68
2023/10/22 12:24:41;;;;;;;5.50;1.60;;;16.60;59.60;;;;;;5005313;28;20197;-67
2023/10/22 12:27:06;;;;;;;6.37;1.43;;;16.70;59.50;;;;;;5008317;28;20239;-67
2023/10/22 12:29:32;;;;;;;6.47;1.57;;;16.60;59.30;;;;;;5010916;28;20194;-66
2023/10/22 12:31:59;;;;;;;2.10;1.10;;;16.70;58.80;;;;;;5015247;28;20268;-67
2023/10/22 12:34:26;;;;;;;5.23;1.30;;;16.90;58.20;;;;;;5003360;28;20235;-68
2023/10/22 12:36:52;;;;;;;5.80;1.47;;;16.90;57.60;;;;;;5016132;28;20547;-68
2023/10/22 12:39:17;;;;;;;8.23;1.70;;;17.00;57.80;;;;;;5002601;28;21134;-67
2023/10/22 12:41:45;;;;;;;3.23;1.40;;;17.30;57.30;;;;;;5011059;28;20182;-68
2023/10/22 12:44:11;;;;;;;3.50;1.43;;;17.40;57.40;;;;;;4996269;28;20209;-69